Terminal Aerodrome Forecast
Issued by NWS

Home | Current Version | Previous Version | Graphics & Text | Print | Product List | Glossary On
Versions: 1 2 3 4 5 6 7 8 9 10 11 12 13 14
616
FTUS43 KICT 141123
TAFSLN
TAF
KSLN 141123Z 1412/1512 VRB04KT P6SM SKC
     FM141500 28007KT P6SM SKC
     FM141700 31011KT P6SM SCT250
     FM150000 26005KT P6SM SCT200
     FM150300 20005KT P6SM BKN100
     FM151000 26009KT P6SM BKN200=

USA.gov is the U.S. government's official web portal to all federal, state and local government web resources and services.